createdAt,value
2023-05-12T00:00:35.661Z,53.9
2023-05-12T00:01:36.278Z,58.5
2023-05-12T00:02:36.997Z,57.0
2023-05-12T00:03:38.148Z,79.3
2023-05-12T00:04:38.848Z,58.5
2023-05-12T00:05:39.389Z,56.4
2023-05-12T00:06:39.980Z,77.6
2023-05-12T00:07:40.597Z,53.2
2023-05-12T00:08:41.217Z,77.0
2023-05-12T00:09:41.838Z,56.2
2023-05-12T00:10:42.431Z,51.4
2023-05-12T00:11:43.044Z,57.2
2023-05-12T00:12:43.649Z,77.6
2023-05-12T00:13:44.294Z,57.7
2023-05-12T00:14:44.852Z,57.6
2023-05-12T00:15:45.450Z,52.4
2023-05-12T00:16:46.117Z,50.4
2023-05-12T00:17:46.740Z,48.3
2023-05-12T00:18:47.347Z,49.0
2023-05-12T00:19:47.922Z,51.6
2023-05-12T00:20:48.520Z,49.2
2023-05-12T00:21:49.125Z,49.7
2023-05-12T00:22:49.715Z,49.4
2023-05-12T00:23:50.323Z,53.9
2023-05-12T00:24:50.923Z,69.7
2023-05-12T00:25:51.512Z,105.2
2023-05-12T00:26:52.104Z,94.0
2023-05-12T00:27:52.725Z,123.1
2023-05-12T00:28:53.325Z,82.2
2023-05-12T00:29:53.925Z,120.0
2023-05-12T00:30:54.692Z,97.4
2023-05-12T00:31:55.318Z,59.3
2023-05-12T00:32:55.845Z,53.9
2023-05-12T00:33:56.425Z,81.7
2023-05-12T00:34:57.013Z,60.7
2023-05-12T00:35:57.618Z,57.7
2023-05-12T00:36:58.209Z,58.2
2023-05-12T00:37:58.808Z,51.3
2023-05-12T00:38:59.422Z,58.6
2023-05-12T00:40:00.006Z,72.5
2023-05-12T00:41:00.609Z,54.2
2023-05-12T00:42:01.230Z,49.8
2023-05-12T00:43:01.818Z,61.5
2023-05-12T00:44:02.421Z,49.5
2023-05-12T00:45:03.045Z,65.4
2023-05-12T00:46:03.710Z,57.2
2023-05-12T00:47:04.249Z,148.9
2023-05-12T00:48:04.931Z,81.0
2023-05-12T00:49:05.519Z,68.0
2023-05-12T00:50:06.114Z,55.1
2023-05-12T00:51:06.711Z,65.8
2023-05-12T00:52:07.329Z,57.5
2023-05-12T00:53:07.927Z,55.4
2023-05-12T00:54:08.525Z,67.7
2023-05-12T00:55:09.140Z,79.2
2023-05-12T00:56:09.740Z,66.4
2023-05-12T00:57:10.347Z,72.5
2023-05-12T00:58:10.929Z,49.9
2023-05-12T00:59:11.528Z,53.1
2023-05-12T01:00:12.130Z,47.5
2023-05-12T01:01:12.795Z,43.7
2023-05-12T01:02:13.404Z,52.0
2023-05-12T01:03:14.130Z,49.1
2023-05-12T01:04:14.779Z,49.0
2023-05-12T01:05:15.386Z,43.6
2023-05-12T01:06:16.002Z,45.6
2023-05-12T01:07:16.608Z,44.8
2023-05-12T01:08:17.202Z,41.8
2023-05-12T01:09:17.801Z,42.5
2023-05-12T01:10:18.644Z,48.3
2023-05-12T01:11:19.502Z,43.6
2023-05-12T01:12:20.120Z,42.2
2023-05-12T01:13:20.715Z,44.1
2023-05-12T01:14:21.309Z,39.9
2023-05-12T01:15:21.904Z,38.4
2023-05-12T01:16:22.502Z,37.4
2023-05-12T01:17:23.168Z,36.4
2023-05-12T01:18:23.834Z,35.2
2023-05-12T01:19:24.444Z,37.8
2023-05-12T01:20:25.049Z,42.9
2023-05-12T01:21:25.661Z,39.6
2023-05-12T01:22:26.272Z,40.7
2023-05-12T01:23:26.857Z,41.9
2023-05-12T01:24:27.474Z,38.3
2023-05-12T01:25:28.055Z,41.3
2023-05-12T01:26:28.656Z,45.2
2023-05-12T01:27:29.252Z,42.6
2023-05-12T01:28:29.876Z,50.6
2023-05-12T01:29:30.481Z,50.4
2023-05-12T01:30:31.069Z,49.8
2023-05-12T01:31:31.715Z,56.2
2023-05-12T01:32:32.296Z,56.5
2023-05-12T01:33:32.888Z,61.0
2023-05-12T01:34:33.492Z,62.9
2023-05-12T01:35:34.092Z,80.9
2023-05-12T01:36:34.681Z,77.3
2023-05-12T01:37:35.273Z,69.4
2023-05-12T01:38:35.874Z,73.6
2023-05-12T01:39:36.469Z,77.9
2023-05-12T01:40:37.085Z,68.9
2023-05-12T01:41:37.740Z,84.1
2023-05-12T01:42:38.284Z,76.5
2023-05-12T01:43:38.883Z,82.4
2023-05-12T01:44:39.479Z,97.7
2023-05-12T01:45:40.068Z,68.0
2023-05-12T01:46:40.735Z,93.8
2023-05-12T01:47:41.313Z,81.5
2023-05-12T01:48:41.897Z,84.5
2023-05-12T01:49:42.513Z,77.4
2023-05-12T01:50:43.131Z,72.7
2023-05-12T01:51:43.730Z,73.0
2023-05-12T01:52:44.324Z,63.4
2023-05-12T01:53:44.922Z,59.2
2023-05-12T01:54:45.518Z,66.5
2023-05-12T01:55:46.117Z,62.6
2023-05-12T01:56:46.722Z,60.1
2023-05-12T01:57:47.336Z,65.4
2023-05-12T01:58:47.971Z,59.4
2023-05-12T01:59:48.540Z,64.8
2023-05-12T02:00:49.126Z,62.4
2023-05-12T02:01:49.773Z,60.8
2023-05-12T02:02:50.406Z,62.1
2023-05-12T02:03:51.089Z,58.4
2023-05-12T02:04:51.723Z,56.4
2023-05-12T02:05:52.336Z,61.8
2023-05-12T02:06:52.964Z,54.6
2023-05-12T02:07:53.530Z,52.5
2023-05-12T02:08:54.150Z,50.0
2023-05-12T02:09:54.794Z,54.6
2023-05-12T02:10:55.368Z,50.4
2023-05-12T02:11:55.959Z,52.9
2023-05-12T02:12:56.560Z,50.8
2023-05-12T02:13:57.152Z,53.6
2023-05-12T02:14:57.757Z,54.4
2023-05-12T02:15:58.379Z,54.3
2023-05-12T02:16:59.024Z,55.4
2023-05-12T02:17:59.624Z,53.0
2023-05-12T02:19:00.218Z,55.2
2023-05-12T02:20:00.834Z,52.0
2023-05-12T02:21:01.460Z,56.3
2023-05-12T02:22:02.050Z,52.5
2023-05-12T02:23:02.648Z,52.2
2023-05-12T02:24:03.246Z,55.5
2023-05-12T02:25:03.847Z,57.4
2023-05-12T02:26:04.454Z,61.2
2023-05-12T02:27:05.035Z,55.4
2023-05-12T02:28:05.651Z,56.0
2023-05-12T02:29:06.225Z,50.9
2023-05-12T02:30:06.826Z,50.2
2023-05-12T02:31:07.448Z,47.9
2023-05-12T02:32:08.104Z,46.3
2023-05-12T02:33:08.666Z,45.0
2023-05-12T02:34:09.264Z,45.1
2023-05-12T02:35:09.872Z,44.6
2023-05-12T02:36:10.476Z,44.5
2023-05-12T02:37:11.077Z,44.3
2023-05-12T02:38:11.684Z,40.6
2023-05-12T02:39:12.288Z,38.8
2023-05-12T02:40:12.872Z,43.9
2023-05-12T02:41:13.490Z,41.9
2023-05-12T02:42:14.081Z,42.1
2023-05-12T02:43:14.679Z,42.3
2023-05-12T02:44:15.275Z,43.3
2023-05-12T02:45:15.869Z,43.3
2023-05-12T02:46:16.484Z,42.7
2023-05-12T02:47:17.102Z,44.4
2023-05-12T02:48:17.697Z,45.5
2023-05-12T02:49:18.296Z,47.0
2023-05-12T02:50:19.113Z,44.2
2023-05-12T02:51:19.783Z,46.7
2023-05-12T02:52:20.381Z,45.8
2023-05-12T02:53:20.979Z,46.0
2023-05-12T02:54:21.570Z,45.9
2023-05-12T02:55:22.170Z,43.3
2023-05-12T02:56:22.761Z,43.5
2023-05-12T02:57:23.356Z,44.3
2023-05-12T02:58:23.957Z,45.2
2023-05-12T02:59:24.549Z,44.9
2023-05-12T03:00:25.147Z,45.0
2023-05-12T03:01:25.791Z,45.2
2023-05-12T03:02:26.478Z,48.0
2023-05-12T03:03:27.187Z,47.4
2023-05-12T03:04:27.792Z,46.2
2023-05-12T03:05:28.426Z,45.1
2023-05-12T03:06:28.999Z,45.7
2023-05-12T03:07:29.609Z,46.2
2023-05-12T03:08:30.206Z,45.1
2023-05-12T03:09:30.820Z,44.7
2023-05-12T03:10:31.402Z,46.7
2023-05-12T03:11:32.001Z,44.5
2023-05-12T03:12:32.610Z,44.6
2023-05-12T03:13:33.197Z,44.6
2023-05-12T03:14:33.811Z,47.8
2023-05-12T03:15:34.412Z,47.1
2023-05-12T03:16:35.068Z,44.0
2023-05-12T03:17:35.742Z,45.0
2023-05-12T03:18:36.338Z,43.6
2023-05-12T03:19:36.898Z,43.0
2023-05-12T03:20:37.495Z,44.3
2023-05-12T03:21:38.099Z,44.5
2023-05-12T03:22:38.687Z,47.7
2023-05-12T03:23:39.284Z,47.0
2023-05-12T03:24:39.888Z,46.7
2023-05-12T03:25:40.483Z,47.8
2023-05-12T03:26:41.109Z,49.0
2023-05-12T03:27:41.712Z,48.7
2023-05-12T03:28:42.297Z,52.2
2023-05-12T03:29:42.906Z,49.6
2023-05-12T03:30:43.498Z,52.0
2023-05-12T03:31:44.277Z,51.6
2023-05-12T03:32:44.729Z,50.7
2023-05-12T03:33:45.314Z,51.6
2023-05-12T03:34:45.963Z,53.6
2023-05-12T03:35:46.559Z,52.8
2023-05-12T03:36:47.153Z,55.8
2023-05-12T03:37:47.768Z,53.2
2023-05-12T03:38:48.379Z,51.8
2023-05-12T03:39:48.980Z,57.8
2023-05-12T03:40:49.599Z,56.0
2023-05-12T03:41:50.200Z,56.1
2023-05-12T03:42:50.798Z,56.4
2023-05-12T03:43:51.418Z,56.1
2023-05-12T03:44:52.020Z,56.5
2023-05-12T03:45:52.630Z,57.4
2023-05-12T03:46:53.335Z,59.7
2023-05-12T03:47:54.098Z,63.8
2023-05-12T03:48:54.655Z,63.5
2023-05-12T03:49:55.260Z,69.5
2023-05-12T03:50:55.859Z,73.4
2023-05-12T03:51:56.504Z,58.8
2023-05-12T03:52:57.080Z,65.2
2023-05-12T03:53:57.680Z,69.6
2023-05-12T03:54:58.282Z,65.3
2023-05-12T03:55:58.889Z,67.2
2023-05-12T03:56:59.485Z,68.7
2023-05-12T03:58:00.103Z,77.1
2023-05-12T03:59:00.700Z,61.8
2023-05-12T04:00:01.299Z,79.8
2023-05-12T04:01:01.914Z,83.1
2023-05-12T04:02:02.520Z,80.2
2023-05-12T04:03:03.178Z,62.8
2023-05-12T04:04:03.750Z,80.8
2023-05-12T04:05:04.336Z,67.4
2023-05-12T04:06:04.940Z,82.6
2023-05-12T04:07:05.559Z,64.5
2023-05-12T04:08:06.176Z,62.5
2023-05-12T04:09:06.775Z,74.8
2023-05-12T04:10:07.377Z,67.2
2023-05-12T04:11:07.976Z,60.9
2023-05-12T04:12:08.596Z,52.4
2023-05-12T04:13:09.187Z,85.8
2023-05-12T04:14:09.780Z,54.5
2023-05-12T04:15:10.383Z,57.9
2023-05-12T04:16:11.012Z,66.9
2023-05-12T04:17:11.584Z,62.5
2023-05-12T04:18:12.196Z,62.0
2023-05-12T04:19:12.782Z,62.9
2023-05-12T04:20:13.392Z,54.7
2023-05-12T04:21:14.009Z,54.1
2023-05-12T04:22:14.630Z,59.0
2023-05-12T04:23:15.233Z,58.8
2023-05-12T04:24:15.828Z,67.7
2023-05-12T04:25:16.482Z,78.1
2023-05-12T04:26:17.061Z,70.1
2023-05-12T04:27:17.666Z,94.5
2023-05-12T04:28:18.272Z,92.2
2023-05-12T04:29:18.865Z,63.2
2023-05-12T04:30:19.605Z,51.4
2023-05-12T04:31:20.473Z,52.8
2023-05-12T04:32:21.045Z,47.3
2023-05-12T04:33:21.695Z,48.6
2023-05-12T04:34:22.284Z,47.8
2023-05-12T04:35:22.888Z,45.0
2023-05-12T04:36:23.492Z,44.5
2023-05-12T04:37:24.109Z,44.0
2023-05-12T04:38:24.710Z,44.8
2023-05-12T04:39:25.313Z,44.6
2023-05-12T04:40:25.933Z,44.3
2023-05-12T04:41:26.538Z,40.0
2023-05-12T04:42:27.159Z,42.8
2023-05-12T04:44:29.354Z,35.3
2023-05-12T04:45:29.962Z,36.1
2023-05-12T04:46:30.735Z,37.4
2023-05-12T04:47:31.342Z,36.2
2023-05-12T04:48:31.906Z,40.3
2023-05-12T04:49:32.509Z,41.4
2023-05-12T04:50:33.135Z,44.1
2023-05-12T04:51:33.742Z,39.1
2023-05-12T04:52:34.354Z,37.6
2023-05-12T04:53:34.953Z,36.2
2023-05-12T04:54:35.574Z,36.6
2023-05-12T04:55:36.171Z,36.6
2023-05-12T04:56:36.784Z,35.8
2023-05-12T04:57:37.393Z,37.3
2023-05-12T04:58:37.988Z,39.8
2023-05-12T04:59:40.515Z,39.6
2023-05-12T05:00:40.184Z,50.4
2023-05-12T05:01:40.868Z,48.8
2023-05-12T05:02:41.577Z,44.7
2023-05-12T05:03:42.375Z,74.3
2023-05-12T05:04:43.035Z,51.8
2023-05-12T05:05:43.638Z,42.2
2023-05-12T05:06:44.236Z,43.1
2023-05-12T05:07:44.842Z,41.1
2023-05-12T05:08:45.444Z,37.6
2023-05-12T05:09:46.044Z,39.7
2023-05-12T05:10:46.651Z,41.9
2023-05-12T05:11:47.267Z,41.0
2023-05-12T05:12:47.865Z,41.0
2023-05-12T05:13:48.472Z,43.7
2023-05-12T05:14:49.076Z,42.3
2023-05-12T05:15:49.710Z,44.3
2023-05-12T05:16:50.288Z,43.5
2023-05-12T05:17:50.921Z,42.9
2023-05-12T05:18:51.564Z,41.0
2023-05-12T05:19:58.351Z,44.1
2023-05-12T05:20:58.507Z,45.9
2023-05-12T05:21:55.185Z,43.9
2023-05-12T05:22:55.789Z,44.8
2023-05-12T05:23:56.392Z,44.6
2023-05-12T05:24:56.993Z,45.4
2023-05-12T05:25:57.597Z,45.9
2023-05-12T05:26:58.196Z,42.4
2023-05-12T05:27:58.801Z,41.7
2023-05-12T05:28:59.401Z,40.9
2023-05-12T05:30:00.045Z,39.6
2023-05-12T05:31:00.649Z,40.1
2023-05-12T05:32:01.225Z,34.6
2023-05-12T05:33:01.860Z,38.4
2023-05-12T05:34:02.461Z,38.0
2023-05-12T05:35:03.028Z,38.9
2023-05-12T05:36:03.641Z,36.8
2023-05-12T05:37:04.233Z,37.8
2023-05-12T05:38:04.866Z,34.9
2023-05-12T05:39:05.478Z,36.8
2023-05-12T05:40:06.100Z,36.9
2023-05-12T05:41:06.703Z,34.7
2023-05-12T05:42:07.312Z,37.8
2023-05-12T05:43:07.904Z,35.7
2023-05-12T05:44:08.512Z,34.5
2023-05-12T05:45:09.113Z,37.6
2023-05-12T05:46:09.732Z,39.0
2023-05-12T05:47:10.406Z,38.2
2023-05-12T05:48:11.065Z,36.8
2023-05-12T05:49:11.618Z,38.4
2023-05-12T05:50:12.235Z,38.6
2023-05-12T05:51:12.821Z,37.7
2023-05-12T05:52:13.427Z,37.5
2023-05-12T05:53:14.027Z,38.2
2023-05-12T05:54:14.636Z,37.0
2023-05-12T05:55:15.228Z,36.1
2023-05-12T05:56:15.842Z,34.6
2023-05-12T05:57:16.434Z,35.7
2023-05-12T05:58:17.042Z,33.6
2023-05-12T05:59:17.660Z,32.4
2023-05-12T06:00:18.263Z,30.9
2023-05-12T06:01:18.863Z,31.8
2023-05-12T06:02:19.478Z,29.9
2023-05-12T06:03:20.247Z,29.3
2023-05-12T06:04:21.029Z,28.2
2023-05-12T06:05:22.007Z,27.8
2023-05-12T06:06:22.338Z,28.3
2023-05-12T06:07:22.948Z,29.4
2023-05-12T06:08:23.544Z,30.1
2023-05-12T06:09:24.178Z,30.1
2023-05-12T06:10:24.772Z,29.2
2023-05-12T06:11:25.374Z,28.8
2023-05-12T06:12:25.974Z,26.9
2023-05-12T06:13:26.583Z,25.0
2023-05-12T06:14:27.201Z,28.3
2023-05-12T06:15:27.820Z,24.9
2023-05-12T06:16:28.462Z,25.0
2023-05-12T06:17:30.745Z,24.8
2023-05-12T06:18:29.722Z,24.0
2023-05-12T06:19:30.290Z,23.2
2023-05-12T06:20:30.886Z,21.2
2023-05-12T06:21:31.493Z,24.3
2023-05-12T06:22:32.111Z,21.4
2023-05-12T06:23:32.717Z,21.0
2023-05-12T06:24:33.320Z,22.3
2023-05-12T06:25:33.925Z,21.2
2023-05-12T06:26:34.522Z,19.2
2023-05-12T06:27:35.129Z,20.9
2023-05-12T06:28:35.729Z,18.2
2023-05-12T06:29:36.333Z,18.1
2023-05-12T06:30:36.937Z,15.6
2023-05-12T06:31:37.571Z,16.3
2023-05-12T06:32:38.180Z,15.2
2023-05-12T06:33:38.775Z,15.0
2023-05-12T06:34:39.554Z,15.1
2023-05-12T06:35:39.999Z,13.9
2023-05-12T06:36:40.603Z,14.9
2023-05-12T06:37:41.229Z,15.4
2023-05-12T06:38:41.858Z,15.7
2023-05-12T06:39:42.465Z,15.4
2023-05-12T06:40:43.065Z,14.1
2023-05-12T06:41:43.653Z,13.2
2023-05-12T06:42:44.286Z,13.8
2023-05-12T06:43:44.877Z,13.2
2023-05-12T06:44:45.508Z,13.2
2023-05-12T06:45:46.103Z,12.0
2023-05-12T06:46:46.754Z,11.6
2023-05-12T06:47:47.464Z,11.9
2023-05-12T06:48:48.062Z,11.4
2023-05-12T06:49:48.656Z,12.6
2023-05-12T06:50:49.257Z,11.6
2023-05-12T06:51:49.866Z,11.5
2023-05-12T06:52:50.461Z,10.0
2023-05-12T06:53:51.063Z,10.9
2023-05-12T06:54:51.666Z,10.5
2023-05-12T06:55:52.266Z,10.8
2023-05-12T06:56:52.867Z,10.6
2023-05-12T06:57:53.474Z,10.2
2023-05-12T06:58:54.078Z,8.7
2023-05-12T06:59:54.707Z,10.0
2023-05-12T07:00:55.300Z,9.2
2023-05-12T07:01:55.990Z,8.5
2023-05-12T07:02:56.547Z,7.5
2023-05-12T07:03:57.194Z,7.7
2023-05-12T07:04:57.826Z,8.1
2023-05-12T07:05:58.438Z,7.8
2023-05-12T07:06:59.045Z,7.8
2023-05-12T07:07:59.637Z,7.1
2023-05-12T07:09:00.228Z,8.0
2023-05-12T07:10:00.830Z,7.7
2023-05-12T07:11:01.458Z,7.3
2023-05-12T07:12:02.055Z,8.4
2023-05-12T07:13:02.659Z,8.0
2023-05-12T07:14:03.290Z,7.4
2023-05-12T07:15:03.881Z,7.6
2023-05-12T07:16:04.559Z,6.8
2023-05-12T07:17:05.168Z,6.8
2023-05-12T07:18:05.763Z,5.8
2023-05-12T07:19:06.477Z,6.3
2023-05-12T07:20:07.069Z,7.3
2023-05-12T07:21:07.663Z,7.6
2023-05-12T07:22:08.289Z,7.6
2023-05-12T07:23:08.891Z,7.6
2023-05-12T07:24:09.516Z,7.5
2023-05-12T07:25:10.133Z,7.6
2023-05-12T07:26:10.737Z,6.6
2023-05-12T07:27:11.343Z,8.4
2023-05-12T07:28:11.961Z,7.7
2023-05-12T07:29:13.975Z,8.0
2023-05-12T07:30:14.163Z,7.5
2023-05-12T07:31:14.788Z,7.6
2023-05-12T07:32:15.377Z,7.2
2023-05-12T07:33:16.001Z,6.5
2023-05-12T07:34:16.645Z,7.2
2023-05-12T07:35:17.458Z,7.0
2023-05-12T07:36:18.520Z,6.3
2023-05-12T07:37:19.470Z,5.4
2023-05-12T07:38:20.063Z,5.5
2023-05-12T07:39:20.662Z,4.6
2023-05-12T07:40:21.291Z,4.6
2023-05-12T07:41:21.923Z,5.1
2023-05-12T07:42:22.537Z,4.0
2023-05-12T07:43:23.254Z,4.7
2023-05-12T07:44:23.875Z,4.2
2023-05-12T07:45:24.497Z,4.4
2023-05-12T07:46:25.181Z,4.1
2023-05-12T07:47:25.756Z,4.6
2023-05-12T07:48:26.328Z,4.2
2023-05-12T07:49:26.929Z,4.6
2023-05-12T07:50:27.527Z,6.2
2023-05-12T07:51:28.127Z,5.4
2023-05-12T07:52:28.748Z,5.3
2023-05-12T07:53:29.359Z,5.0
2023-05-12T07:54:29.985Z,6.2
2023-05-12T07:55:30.601Z,4.9
2023-05-12T07:56:31.181Z,5.7
2023-05-12T07:57:31.799Z,4.4
2023-05-12T07:58:32.411Z,5.0
2023-05-12T07:59:33.006Z,4.1
2023-05-12T08:00:33.602Z,5.0
2023-05-12T08:01:34.207Z,4.3
2023-05-12T08:02:34.966Z,4.9
2023-05-12T08:03:35.663Z,4.4
2023-05-12T08:04:36.330Z,4.3
2023-05-12T08:05:37.172Z,4.4
2023-05-12T08:06:37.691Z,4.4
2023-05-12T08:07:38.289Z,4.7
2023-05-12T08:08:38.900Z,5.0
2023-05-12T08:09:39.487Z,4.9
2023-05-12T08:10:40.086Z,4.7
2023-05-12T08:11:40.694Z,4.8
2023-05-12T08:12:41.294Z,6.1
2023-05-12T08:13:41.915Z,4.8
2023-05-12T08:14:42.521Z,4.6
2023-05-12T08:15:43.113Z,5.3
2023-05-12T08:16:43.826Z,5.5
2023-05-12T08:17:44.422Z,5.0
2023-05-12T08:18:45.016Z,5.1
2023-05-12T08:19:45.613Z,4.7
2023-05-12T08:20:46.223Z,4.3
2023-05-12T08:21:46.837Z,4.9
2023-05-12T08:22:47.443Z,5.2
2023-05-12T08:23:48.051Z,4.6
2023-05-12T08:24:48.675Z,4.7
2023-05-12T08:25:49.292Z,4.7
2023-05-12T08:26:49.898Z,4.6
2023-05-12T08:27:50.503Z,4.4
2023-05-12T08:28:51.098Z,3.9
2023-05-12T08:29:51.700Z,4.1
2023-05-12T08:30:52.326Z,3.9
2023-05-12T08:31:52.908Z,3.4
2023-05-12T08:32:53.661Z,3.5
2023-05-12T08:34:09.154Z,3.3
2023-05-12T08:34:55.720Z,3.8
2023-05-12T08:35:56.432Z,3.4
2023-05-12T08:36:56.949Z,3.3
2023-05-12T08:37:57.568Z,3.6
2023-05-12T08:38:58.174Z,3.8
2023-05-12T08:39:58.773Z,4.3
2023-05-12T08:40:59.378Z,4.1
2023-05-12T08:41:59.999Z,3.9
2023-05-12T08:43:01.867Z,3.6
2023-05-12T08:44:02.199Z,4.1
2023-05-12T08:45:02.806Z,3.9
2023-05-12T08:46:03.420Z,4.4
2023-05-12T08:47:04.010Z,4.2
2023-05-12T08:48:04.705Z,4.6
2023-05-12T08:49:05.253Z,4.8
2023-05-12T08:50:05.855Z,4.0
2023-05-12T08:51:06.502Z,4.8
2023-05-12T08:52:07.071Z,4.4
2023-05-12T08:53:07.679Z,4.5
2023-05-12T08:54:08.273Z,5.5
2023-05-12T08:55:08.878Z,4.9
2023-05-12T08:57:11.080Z,5.4
2023-05-12T08:58:11.682Z,5.1
2023-05-12T08:59:12.284Z,4.7
2023-05-12T09:00:12.885Z,4.9
2023-05-12T09:01:13.586Z,5.3
2023-05-12T09:02:14.342Z,5.3
2023-05-12T09:03:15.017Z,6.4
2023-05-12T09:04:15.604Z,5.8
2023-05-12T09:05:16.207Z,6.4
2023-05-12T09:06:16.814Z,6.1
2023-05-12T09:07:17.414Z,5.9
2023-05-12T09:08:18.023Z,6.7
2023-05-12T09:09:18.642Z,6.3
2023-05-12T09:10:29.872Z,7.0
2023-05-12T09:11:20.284Z,6.7
2023-05-12T09:12:20.885Z,6.3
2023-05-12T09:13:21.535Z,7.4
2023-05-12T09:14:22.112Z,6.8
2023-05-12T09:15:22.908Z,7.8
2023-05-12T09:16:23.682Z,7.8
2023-05-12T09:17:24.233Z,8.2
2023-05-12T09:18:24.837Z,8.7
2023-05-12T09:19:25.392Z,8.9
2023-05-12T09:20:31.386Z,9.3
2023-05-12T09:21:28.067Z,9.6
2023-05-12T09:22:28.584Z,9.3
2023-05-12T09:23:29.188Z,9.3
2023-05-12T09:24:29.793Z,9.6
2023-05-12T09:25:30.392Z,8.8
2023-05-12T09:26:30.998Z,10.4
2023-05-12T09:27:31.602Z,10.9
2023-05-12T09:28:32.223Z,10.5
2023-05-12T09:29:35.880Z,10.3
2023-05-12T09:30:34.433Z,10.4
2023-05-12T09:31:35.111Z,10.9
2023-05-12T09:32:35.746Z,10.4
2023-05-12T09:33:36.344Z,9.5
2023-05-12T09:34:36.949Z,11.2
2023-05-12T09:35:37.574Z,10.6
2023-05-12T09:36:38.217Z,11.3
2023-05-12T09:37:38.833Z,11.5
2023-05-12T09:38:39.453Z,11.0
2023-05-12T09:39:40.062Z,11.3
2023-05-12T09:40:40.658Z,11.0
2023-05-12T09:41:41.262Z,10.8
2023-05-12T09:42:41.869Z,10.5
2023-05-12T09:43:42.477Z,10.0
2023-05-12T09:44:43.096Z,9.9
2023-05-12T09:45:43.709Z,9.7
2023-05-12T09:46:44.333Z,10.8
2023-05-12T09:47:44.999Z,10.3
2023-05-12T09:48:45.578Z,10.5
2023-05-12T09:49:46.185Z,10.6
2023-05-12T09:50:48.131Z,10.9
2023-05-12T09:51:48.390Z,11.7
2023-05-12T09:52:49.010Z,12.1
2023-05-12T09:53:49.611Z,11.2
2023-05-12T09:54:50.248Z,11.5
2023-05-12T09:55:50.823Z,10.9
2023-05-12T09:56:51.448Z,11.7
2023-05-12T09:57:52.051Z,12.1
2023-05-12T09:58:52.665Z,12.1
2023-05-12T09:59:53.263Z,12.3
2023-05-12T10:01:55.545Z,11.2
2023-05-12T10:02:56.164Z,11.6
2023-05-12T10:03:56.790Z,11.2
2023-05-12T10:04:57.368Z,12.4
2023-05-12T10:05:57.950Z,12.2
2023-05-12T10:06:58.590Z,11.6
2023-05-12T10:07:59.184Z,12.1
2023-05-12T10:08:59.785Z,12.3
2023-05-12T10:10:00.409Z,11.4
2023-05-12T10:11:01.021Z,11.9
2023-05-12T10:12:01.632Z,12.6
2023-05-12T10:13:02.235Z,11.3
2023-05-12T10:14:02.854Z,11.4
2023-05-12T10:15:03.464Z,11.0
2023-05-12T10:16:05.269Z,11.2
2023-05-12T10:17:05.893Z,11.0
2023-05-12T10:18:06.549Z,11.0
2023-05-12T10:19:07.165Z,9.6
2023-05-12T10:20:07.725Z,9.4
2023-05-12T10:21:08.328Z,9.2
2023-05-12T10:22:08.980Z,7.5
2023-05-12T10:23:09.895Z,9.3
2023-05-12T10:24:10.411Z,8.6
2023-05-12T10:25:11.022Z,7.8
2023-05-12T10:26:11.650Z,9.7
2023-05-12T10:27:12.240Z,9.6
2023-05-12T10:28:12.861Z,9.5
2023-05-12T10:29:13.453Z,9.2
2023-05-12T10:30:14.076Z,9.0
2023-05-12T10:31:14.729Z,8.8
2023-05-12T10:32:15.304Z,8.9
2023-05-12T10:33:15.922Z,8.0
2023-05-12T10:34:16.526Z,8.3
2023-05-12T10:35:17.158Z,7.9
2023-05-12T10:36:17.750Z,7.6
2023-05-12T10:37:18.358Z,7.1
2023-05-12T10:38:18.971Z,7.4
2023-05-12T10:39:19.604Z,6.7
2023-05-12T10:40:20.196Z,7.1
2023-05-12T10:41:20.798Z,6.3
2023-05-12T10:42:21.404Z,6.7
2023-05-12T10:43:22.014Z,6.4
2023-05-12T10:44:22.619Z,6.8
2023-05-12T10:45:23.314Z,6.3
2023-05-12T10:46:23.853Z,6.6
2023-05-12T10:47:24.489Z,6.0
2023-05-12T10:48:25.064Z,6.6
2023-05-12T10:49:25.664Z,6.0
2023-05-12T10:50:26.266Z,7.2
2023-05-12T10:51:26.873Z,7.0
2023-05-12T10:52:27.499Z,6.3
2023-05-12T10:53:38.078Z,6.4
2023-05-12T10:54:29.698Z,6.3
2023-05-12T10:55:30.349Z,6.9
2023-05-12T10:56:31.214Z,6.6
2023-05-12T10:57:32.019Z,6.3
2023-05-12T10:58:33.185Z,5.7
2023-05-12T10:59:34.446Z,5.6
2023-05-12T11:00:35.407Z,6.1
2023-05-12T11:01:37.452Z,5.8
2023-05-12T11:02:39.166Z,5.6
2023-05-12T11:03:39.956Z,4.5
2023-05-12T11:04:41.547Z,3.9
2023-05-12T11:05:42.512Z,3.9
2023-05-12T11:06:43.411Z,3.3
2023-05-12T11:07:44.164Z,3.3
2023-05-12T11:08:45.625Z,3.9
2023-05-12T11:10:47.737Z,3.7
2023-05-12T11:11:48.367Z,3.8
2023-05-12T11:12:49.918Z,3.7
2023-05-12T11:13:50.545Z,3.2
2023-05-12T11:14:51.164Z,2.6
2023-05-12T11:15:51.814Z,2.9
2023-05-12T11:16:52.375Z,3.2
2023-05-12T11:17:53.024Z,3.2
2023-05-12T11:18:53.661Z,3.1
2023-05-12T11:19:54.253Z,2.9
2023-05-12T11:20:54.857Z,3.3
2023-05-12T11:21:55.456Z,2.8
2023-05-12T11:22:56.218Z,3.2
2023-05-12T11:23:56.727Z,3.1
2023-05-12T11:24:57.418Z,3.0
2023-05-12T11:25:58.068Z,2.8
2023-05-12T11:26:58.654Z,2.9
2023-05-12T11:27:59.256Z,3.3
2023-05-12T11:28:59.865Z,2.9
2023-05-12T11:30:00.474Z,2.8
2023-05-12T11:31:01.064Z,2.7
2023-05-12T11:32:01.777Z,2.5
2023-05-12T11:33:02.502Z,2.8
2023-05-12T11:34:12.085Z,3.0
2023-05-12T11:35:03.640Z,2.4
2023-05-12T11:36:04.246Z,2.8
2023-05-12T11:37:04.880Z,3.1
2023-05-12T11:38:05.511Z,2.9
2023-05-12T11:39:06.113Z,2.8
2023-05-12T11:40:06.719Z,2.7
2023-05-12T11:41:07.339Z,2.6
2023-05-12T11:42:12.887Z,2.9
2023-05-12T11:43:09.570Z,2.8
2023-05-12T11:44:10.164Z,2.6
2023-05-12T11:45:10.785Z,3.1
2023-05-12T11:46:11.439Z,3.2
2023-05-12T11:47:11.992Z,2.9
2023-05-12T11:48:12.653Z,2.7
2023-05-12T11:49:13.270Z,3.4
2023-05-12T11:50:13.873Z,2.8
2023-05-12T11:51:14.481Z,2.9
2023-05-12T11:52:15.110Z,2.9
2023-05-12T11:53:15.685Z,3.1
2023-05-12T11:54:16.281Z,3.2
2023-05-12T11:55:16.913Z,3.1
2023-05-12T11:56:17.534Z,3.0
2023-05-12T11:57:18.158Z,2.7
2023-05-12T11:58:18.757Z,2.5
2023-05-12T11:59:19.366Z,2.6
2023-05-12T12:00:19.983Z,2.8
2023-05-12T12:01:20.585Z,3.1
2023-05-12T12:02:21.225Z,2.3
2023-05-12T12:03:21.936Z,3.1
2023-05-12T12:04:22.487Z,2.7
2023-05-12T12:05:23.274Z,3.3
2023-05-12T12:06:23.910Z,3.1
2023-05-12T12:07:24.514Z,3.3
2023-05-12T12:08:25.124Z,2.9
2023-05-12T12:09:25.720Z,3.3
2023-05-12T12:10:26.347Z,3.2
2023-05-12T12:11:26.952Z,3.3
2023-05-12T12:12:27.573Z,3.1
2023-05-12T12:13:28.175Z,3.3
2023-05-12T12:14:28.775Z,2.9
2023-05-12T12:15:29.384Z,3.6
2023-05-12T12:16:30.033Z,2.6
2023-05-12T12:17:30.878Z,3.0
2023-05-12T12:18:31.308Z,3.3
2023-05-12T12:19:31.894Z,3.0
2023-05-12T12:20:32.520Z,3.0
2023-05-12T12:21:33.122Z,2.6
2023-05-12T12:22:33.723Z,2.6
2023-05-12T12:23:40.599Z,2.8
2023-05-12T12:24:35.918Z,2.7
2023-05-12T12:25:36.527Z,2.7
2023-05-12T12:26:38.911Z,3.3
2023-05-12T12:27:38.725Z,2.6
2023-05-12T12:28:39.330Z,2.6
2023-05-12T12:29:39.972Z,3.0
2023-05-12T12:30:40.568Z,2.5
2023-05-12T12:31:41.219Z,2.9
2023-05-12T12:32:41.805Z,2.6
2023-05-12T12:33:42.392Z,2.8
2023-05-12T12:34:43.006Z,3.2
2023-05-12T12:35:43.642Z,2.7
2023-05-12T12:36:44.237Z,3.2
2023-05-12T12:37:44.840Z,2.7
2023-05-12T12:38:45.455Z,2.7
2023-05-12T12:39:46.068Z,2.9
2023-05-12T12:40:46.667Z,2.5
2023-05-12T12:41:47.275Z,2.2
2023-05-12T12:42:47.876Z,2.6
2023-05-12T12:43:48.505Z,2.5
2023-05-12T12:44:49.102Z,2.5
2023-05-12T12:45:49.706Z,2.5
2023-05-12T12:46:50.333Z,3.1
2023-05-12T12:47:50.943Z,2.7
2023-05-12T12:48:51.544Z,2.5
2023-05-12T12:49:52.144Z,2.7
2023-05-12T12:50:52.763Z,2.4
2023-05-12T12:51:53.370Z,2.7
2023-05-12T12:52:53.974Z,2.4
2023-05-12T12:53:54.581Z,2.7
2023-05-12T12:54:55.180Z,2.7
2023-05-12T12:55:55.785Z,2.3
2023-05-12T12:56:56.388Z,2.4
2023-05-12T12:57:56.992Z,2.5
2023-05-12T12:58:57.597Z,2.6
2023-05-12T12:59:58.198Z,2.4
2023-05-12T13:00:58.848Z,2.3
2023-05-12T13:01:59.457Z,2.5
2023-05-12T13:03:00.101Z,2.5
2023-05-12T13:04:00.815Z,2.6
2023-05-12T13:05:01.437Z,2.6
2023-05-12T13:06:02.012Z,2.4
2023-05-12T13:07:02.614Z,2.3
2023-05-12T13:08:03.222Z,2.4
2023-05-12T13:09:03.829Z,2.4
2023-05-12T13:10:04.451Z,2.7
2023-05-12T13:11:05.071Z,2.6
2023-05-12T13:12:05.656Z,2.5
2023-05-12T13:13:06.285Z,2.3
2023-05-12T13:14:06.887Z,2.7
2023-05-12T13:15:07.484Z,2.4
2023-05-12T13:16:08.106Z,2.7
2023-05-12T13:17:08.727Z,2.7
2023-05-12T13:18:09.339Z,2.2
2023-05-12T13:19:10.123Z,2.7
2023-05-12T13:20:11.075Z,2.3
2023-05-12T13:21:11.594Z,2.7
2023-05-12T13:22:12.215Z,2.7
2023-05-12T13:23:12.814Z,2.7
2023-05-12T13:24:13.411Z,2.6
2023-05-12T13:25:14.020Z,2.7
2023-05-12T13:26:14.646Z,2.2
2023-05-12T13:27:15.249Z,2.3
2023-05-12T13:28:15.871Z,2.6
2023-05-12T13:29:16.476Z,2.8
2023-05-12T13:30:17.080Z,2.8
2023-05-12T13:31:17.726Z,2.4
2023-05-12T13:32:18.315Z,2.7
2023-05-12T13:33:18.918Z,2.3
2023-05-12T13:34:19.517Z,2.7
2023-05-12T13:35:20.454Z,2.8
2023-05-12T13:36:21.299Z,2.7
2023-05-12T13:37:21.899Z,2.5
2023-05-12T13:38:22.505Z,2.6
2023-05-12T13:39:23.132Z,3.0
2023-05-12T13:40:23.740Z,3.1
2023-05-12T13:41:24.334Z,3.1
2023-05-12T13:42:24.935Z,3.0